Time;durP1;ratioP1;P1;durP2;ratioP2;P2;SDS_P1;SDS_P2;PMS_P1;PMS_P2;Temp;Humidity;BMP_temperature;BMP_pressure;BME280_temperature;BME280_humidity;BME280_pressure;Samples;Min_cycle;Max_cycle;Signal;HPM_P1;HPM_P2
2022/11/01 00:01:54;;;;;;;9.70;5.70;;;16.50;81.80;;;;;;5025575;28;20077;-72
2022/11/01 00:04:20;;;;;;;10.48;4.38;;;16.50;82.00;;;;;;5009261;28;20524;-73
2022/11/01 00:06:46;;;;;;;10.45;7.07;;;16.50;81.70;;;;;;5016031;28;20491;-74
2022/11/01 00:09:12;;;;;;;10.27;5.53;;;16.50;83.00;;;;;;5009195;28;20037;-73
2022/11/01 00:11:37;;;;;;;11.10;5.60;;;16.50;82.20;;;;;;5025981;28;20041;-75
2022/11/01 00:14:03;;;;;;;17.85;7.25;;;16.60;82.40;;;;;;5008609;28;20153;-73
2022/11/01 00:16:29;;;;;;;13.70;5.47;;;16.60;82.50;;;;;;5022365;28;20025;-74
2022/11/01 00:18:54;;;;;;;10.98;4.80;;;16.60;82.30;;;;;;5019586;28;20037;-73
2022/11/01 00:21:20;;;;;;;13.55;4.97;;;16.60;82.30;;;;;;5021093;28;20057;-73
2022/11/01 00:23:46;;;;;;;11.13;5.63;;;16.60;82.10;;;;;;5017489;28;20444;-74
2022/11/01 00:26:17;;;;;;;9.65;4.05;;;16.60;82.70;;;;;;5019959;28;20025;-73
2022/11/01 00:28:44;;;;;;;10.32;3.97;;;16.70;82.20;;;;;;5020630;28;20049;-72
2022/11/01 00:31:10;;;;;;;9.70;4.65;;;16.70;81.50;;;;;;5026569;28;20021;-74
2022/11/01 00:33:36;;;;;;;17.95;6.40;;;16.70;81.60;;;;;;5019932;28;20029;-72
2022/11/01 00:36:02;;;;;;;13.63;6.68;;;16.60;82.50;;;;;;5017581;28;20025;-73
2022/11/01 00:38:28;;;;;;;10.80;5.15;;;16.60;82.30;;;;;;5018756;28;20484;-74
2022/11/01 00:40:54;;;;;;;8.95;4.60;;;16.60;82.70;;;;;;5008978;28;20017;-73
2022/11/01 00:43:20;;;;;;;14.00;5.38;;;16.60;83.00;;;;;;5024783;28;20029;-73
2022/11/01 00:45:45;;;;;;;14.88;5.10;;;16.60;82.80;;;;;;5014585;28;20025;-74
2022/11/01 00:48:14;;;;;;;11.00;4.88;;;16.70;82.60;;;;;;5027572;28;20025;-73
2022/11/01 00:50:40;;;;;;;11.68;5.47;;;16.60;82.70;;;;;;5010985;28;20030;-73
2022/11/01 00:53:06;;;;;;;15.77;7.45;;;16.70;82.20;;;;;;5023831;28;20664;-74
2022/11/01 00:55:32;;;;;;;15.45;5.32;;;16.60;83.30;;;;;;5012094;28;20539;-72
2022/11/01 00:57:57;;;;;;;12.27;5.13;;;16.60;83.60;;;;;;5022726;28;20017;-73
2022/11/01 01:00:23;;;;;;;12.70;5.18;;;16.70;83.30;;;;;;5024242;28;20030;-74
2022/11/01 01:02:51;;;;;;;14.88;6.55;;;16.70;83.30;;;;;;5021434;28;20045;-73
2022/11/01 01:05:17;;;;;;;11.07;5.20;;;16.70;83.30;;;;;;5026705;28;20068;-74
2022/11/01 01:07:43;;;;;;;10.35;5.20;;;16.70;84.90;;;;;;5018816;28;20050;-74
2022/11/01 01:10:08;;;;;;;9.48;4.53;;;16.80;83.90;;;;;;5019185;28;20047;-74
2022/11/01 01:12:35;;;;;;;13.77;6.15;;;16.80;83.40;;;;;;5011953;28;20018;-73
2022/11/01 01:15:01;;;;;;;10.20;4.93;;;16.90;83.90;;;;;;5018265;28;20550;-73
2022/11/01 01:17:27;;;;;;;13.82;6.47;;;16.90;83.40;;;;;;5015126;28;20022;-73
2022/11/01 01:19:53;;;;;;;13.32;6.57;;;16.90;84.10;;;;;;5018901;28;20045;-74
2022/11/01 01:22:18;;;;;;;9.75;4.90;;;16.90;83.80;;;;;;5015363;28;20464;-74
2022/11/01 01:24:46;;;;;;;10.15;5.97;;;16.90;83.10;;;;;;5013455;28;20559;-73
2022/11/01 01:27:13;;;;;;;12.88;4.72;;;16.90;84.00;;;;;;5009444;28;20029;-73
2022/11/01 01:29:43;;;;;;;9.82;4.45;;;17.00;83.10;;;;;;5023752;28;20083;-74
2022/11/01 01:32:15;;;;;;;9.85;5.18;;;17.00;82.10;;;;;;5008629;28;20507;-74
2022/11/01 01:34:41;;;;;;;10.93;5.25;;;17.00;82.50;;;;;;5024028;28;20032;-73
2022/11/01 01:37:11;;;;;;;8.32;4.18;;;17.00;83.90;;;;;;5016169;28;20022;-74
2022/11/01 01:39:37;;;;;;;9.95;5.28;;;17.00;82.30;;;;;;5023157;28;20053;-73
2022/11/01 01:42:28;;;;;;;13.52;5.30;;;17.00;84.40;;;;;;5022890;28;20083;-72
2022/11/01 01:44:54;;;;;;;12.35;4.97;;;17.00;83.60;;;;;;5020845;28;20027;-73
2022/11/01 01:47:22;;;;;;;8.43;4.90;;;17.00;83.90;;;;;;5011485;28;20085;-73
2022/11/01 01:49:51;;;;;;;10.57;5.00;;;17.10;82.40;;;;;;5019684;28;20764;-73
2022/11/01 01:52:17;;;;;;;12.18;5.15;;;17.00;83.50;;;;;;5023724;28;20087;-74
2022/11/01 01:54:43;;;;;;;13.77;5.75;;;17.10;83.00;;;;;;5012814;28;20113;-75
2022/11/01 01:57:09;;;;;;;14.32;5.85;;;17.10;84.10;;;;;;5013105;28;20112;-74
2022/11/01 01:59:35;;;;;;;14.02;5.50;;;17.00;83.90;;;;;;5020845;28;20018;-73
2022/11/01 02:02:01;;;;;;;7.43;3.95;;;17.00;84.90;;;;;;5019976;28;20053;-74
2022/11/01 02:04:35;;;;;;;18.98;5.68;;;17.10;83.00;;;;;;5021529;28;20064;-74
2022/11/01 02:07:04;;;;;;;9.52;4.30;;;17.00;84.40;;;;;;5019579;28;20152;-73
2022/11/01 02:09:33;;;;;;;13.50;5.15;;;17.00;83.70;;;;;;5025562;28;20031;-73
2022/11/01 02:12:02;;;;;;;13.60;6.00;;;17.00;84.00;;;;;;5031276;28;20495;-75
2022/11/01 02:14:28;;;;;;;9.63;4.50;;;17.00;84.00;;;;;;5027783;28;20025;-74
2022/11/01 02:16:57;;;;;;;11.88;4.97;;;17.10;83.70;;;;;;5020524;28;20022;-74
2022/11/01 02:20:00;;;;;;;9.60;3.83;;;17.10;83.80;;;;;;5024281;28;20072;-74
2022/11/01 02:22:53;;;;;;;10.05;5.00;;;17.00;84.60;;;;;;5011971;28;20064;-73
2022/11/01 02:25:54;;;;;;;11.00;4.65;;;17.00;84.80;;;;;;5020348;28;20032;-74
2022/11/01 02:28:55;;;;;;;10.80;4.18;;;17.00;85.40;;;;;;5010825;28;20022;-73
2022/11/01 02:31:48;;;;;;;8.68;4.53;;;17.00;85.90;;;;;;5023642;28;20041;-73
2022/11/01 02:34:24;;;;;;;12.55;5.00;;;17.00;85.00;;;;;;5023540;28;20097;-73
2022/11/01 02:37:00;;;;;;;9.02;4.55;;;17.00;84.60;;;;;;5017907;28;20017;-74
2022/11/01 02:39:31;;;;;;;12.43;5.68;;;17.10;84.30;;;;;;5011338;28;20061;-74
2022/11/01 02:42:09;;;;;;;9.60;4.13;;;17.10;85.50;;;;;;5028208;28;20480;-73
2022/11/01 02:44:40;;;;;;;8.43;4.15;;;17.10;85.70;;;;;;5011471;28;20030;-74
2022/11/01 02:47:07;;;;;;;10.98;5.85;;;17.10;84.30;;;;;;5024527;28;20021;-73
2022/11/01 02:49:35;;;;;;;14.85;5.13;;;17.20;85.20;;;;;;5013720;28;20022;-74
2022/11/01 02:52:02;;;;;;;7.32;3.92;;;17.20;85.40;;;;;;5027398;28;20037;-73
2022/11/01 02:54:32;;;;;;;12.68;4.78;;;17.20;84.50;;;;;;5015503;28;20030;-73
2022/11/01 02:57:05;;;;;;;9.13;4.65;;;17.20;85.20;;;;;;5023784;28;20034;-73
2022/11/01 02:59:41;;;;;;;15.75;5.18;;;17.20;84.20;;;;;;5027980;28;20033;-74
2022/11/01 03:02:18;;;;;;;10.88;5.35;;;17.30;85.40;;;;;;5020791;28;20026;-73
2022/11/01 03:04:45;;;;;;;16.42;5.97;;;17.30;85.00;;;;;;5024524;28;20050;-73
2022/11/01 03:07:12;;;;;;;9.68;4.72;;;17.30;84.80;;;;;;5024513;28;20480;-74
2022/11/01 03:09:40;;;;;;;10.40;4.78;;;17.40;85.30;;;;;;5024848;28;20022;-74
2022/11/01 03:12:17;;;;;;;9.05;4.60;;;17.30;85.70;;;;;;5024170;28;20029;-74
2022/11/01 03:14:53;;;;;;;12.35;5.72;;;17.40;84.80;;;;;;5017111;28;20317;-74
2022/11/01 03:17:31;;;;;;;10.57;4.28;;;17.40;84.10;;;;;;5022492;28;20021;-73
2022/11/01 03:20:05;;;;;;;10.77;4.05;;;17.40;84.70;;;;;;5029831;28;20030;-73
2022/11/01 03:22:47;;;;;;;13.13;5.40;;;17.40;87.10;;;;;;5022466;28;20167;-75
2022/11/01 03:25:40;;;;;;;9.32;4.32;;;17.40;86.70;;;;;;5010220;28;20490;-71
2022/11/01 03:28:26;;;;;;;9.55;4.15;;;17.40;84.90;;;;;;5018040;28;20116;-73
2022/11/01 03:30:57;;;;;;;12.90;4.53;;;17.40;84.40;;;;;;5014255;28;20487;-74
2022/11/01 03:33:26;;;;;;;8.57;3.78;;;17.40;86.60;;;;;;5027300;28;20029;-74
2022/11/01 03:35:56;;;;;;;9.88;4.18;;;17.50;86.00;;;;;;5029236;28;20025;-73
2022/11/01 03:38:25;;;;;;;;;;;17.50;85.40;;;;;;5027450;28;20033;-73
2022/11/01 03:40:59;;;;;;;9.95;4.63;;;17.50;84.20;;;;;;5021195;28;19909;-74
2022/11/01 03:43:28;;;;;;;7.35;3.80;;;17.60;84.80;;;;;;5022190;28;20046;-74
2022/11/01 03:45:54;;;;;;;10.75;4.55;;;17.60;84.80;;;;;;5017758;28;20057;-73
2022/11/01 03:48:19;;;;;;;7.80;4.20;;;17.60;85.70;;;;;;5018047;28;20543;-73
2022/11/01 03:50:47;;;;;;;8.57;3.92;;;17.60;83.70;;;;;;5016626;28;20029;-73
2022/11/01 03:53:13;;;;;;;10.52;4.45;;;17.60;85.10;;;;;;5017267;28;20032;-74
2022/11/01 03:55:39;;;;;;;7.10;3.70;;;17.60;84.80;;;;;;5014141;28;20029;-74
2022/11/01 03:58:06;;;;;;;7.07;3.53;;;17.60;84.90;;;;;;5020469;28;20030;-73
2022/11/01 04:00:41;;;;;;;10.35;4.13;;;17.60;86.60;;;;;;5011717;28;20045;-76
2022/11/01 04:03:08;;;;;;;11.88;4.38;;;17.60;85.60;;;;;;5017571;28;20034;-75
2022/11/01 04:05:35;;;;;;;9.90;4.88;;;17.60;86.20;;;;;;5019583;28;20073;-74
2022/11/01 04:08:00;;;;;;;8.18;3.85;;;17.60;86.40;;;;;;5011395;28;20018;-74
2022/11/01 04:10:28;;;;;;;7.90;3.38;;;17.60;85.40;;;;;;5028886;28;20033;-73
2022/11/01 04:12:54;;;;;;;10.43;3.90;;;17.70;84.20;;;;;;5014125;28;20403;-74
2022/11/01 04:21:15;;;;;;;9.85;4.18;;;17.70;84.10;;;;;;5012634;28;20115;-73
2022/11/01 04:23:41;;;;;;;7.82;3.15;;;17.60;85.50;;;;;;5015213;28;20719;-73
2022/11/01 04:26:10;;;;;;;10.98;3.92;;;17.60;84.60;;;;;;5015189;28;20109;-73
2022/11/01 04:28:36;;;;;;;9.30;3.75;;;17.60;84.00;;;;;;5021658;28;20029;-73
2022/11/01 04:31:02;;;;;;;8.48;3.30;;;17.60;83.70;;;;;;5028391;28;20080;-73
2022/11/01 04:33:27;;;;;;;7.85;2.45;;;17.50;83.90;;;;;;5027051;28;20033;-73
2022/11/01 04:35:53;;;;;;;6.68;3.13;;;17.40;83.80;;;;;;5025386;28;20026;-74
2022/11/01 04:38:19;;;;;;;5.78;3.03;;;17.40;83.60;;;;;;5015429;28;20022;-74
2022/11/01 04:40:44;;;;;;;8.32;2.92;;;17.40;83.00;;;;;;5021985;28;20032;-74
2022/11/01 04:43:11;;;;;;;9.32;2.80;;;17.40;83.20;;;;;;5008176;28;20034;-74
2022/11/01 04:45:37;;;;;;;4.95;2.60;;;17.40;83.10;;;;;;5020664;28;20455;-73
2022/11/01 04:48:12;;;;;;;6.20;1.60;;;17.20;81.60;;;;;;5015404;28;20057;-72
2022/11/01 04:50:38;;;;;;;3.95;1.23;;;17.10;80.30;;;;;;5017705;28;20112;-73
2022/11/01 04:53:06;;;;;;;2.92;1.00;;;17.10;78.80;;;;;;5020561;28;20104;-74
2022/11/01 04:55:32;;;;;;;2.38;1.00;;;17.00;78.40;;;;;;5022281;28;20063;-74
2022/11/01 04:57:57;;;;;;;4.75;0.95;;;17.00;78.30;;;;;;5021907;28;20057;-74
2022/11/01 05:00:24;;;;;;;5.30;1.30;;;16.90;77.60;;;;;;5015039;28;20027;-75
2022/11/01 05:02:50;;;;;;;2.78;0.93;;;16.80;77.70;;;;;;5018198;28;20076;-74
2022/11/01 05:05:17;;;;;;;3.88;1.10;;;16.70;77.90;;;;;;5017089;28;20427;-74
2022/11/01 05:07:43;;;;;;;2.78;0.70;;;16.70;78.70;;;;;;5018190;28;20101;-73
2022/11/01 05:10:09;;;;;;;6.18;0.93;;;16.60;77.50;;;;;;5022289;28;20029;-74
2022/11/01 05:12:36;;;;;;;3.63;0.82;;;16.50;77.50;;;;;;5016416;28;20129;-73
2022/11/01 05:15:02;;;;;;;3.17;1.10;;;16.50;77.10;;;;;;5010574;28;20368;-74
2022/11/01 05:17:28;;;;;;;2.00;0.80;;;16.50;78.40;;;;;;5016744;28;20039;-74
2022/11/01 05:19:54;;;;;;;3.60;1.23;;;16.40;78.70;;;;;;5019228;28;20029;-72
2022/11/01 05:22:20;;;;;;;7.10;1.10;;;16.30;78.90;;;;;;5010965;28;20038;-73
2022/11/01 05:24:45;;;;;;;2.83;0.85;;;16.30;79.00;;;;;;5008100;28;20049;-74
2022/11/01 05:27:11;;;;;;;5.13;1.00;;;16.20;78.60;;;;;;5026689;28;20041;-73
2022/11/01 05:29:36;;;;;;;4.55;1.15;;;16.20;77.90;;;;;;5026274;28;20115;-72
2022/11/01 05:32:02;;;;;;;2.35;0.77;;;16.20;78.60;;;;;;5023360;28;20073;-73
2022/11/01 05:34:28;;;;;;;4.57;0.90;;;16.00;78.20;;;;;;5022869;28;20487;-74
2022/11/01 05:36:54;;;;;;;4.43;1.10;;;16.10;79.20;;;;;;5020637;28;20551;-73
2022/11/01 05:39:19;;;;;;;4.10;1.35;;;16.10;79.30;;;;;;5015502;28;20025;-74
2022/11/01 05:41:45;;;;;;;2.92;0.75;;;16.00;78.70;;;;;;5021134;28;20028;-73
2022/11/01 05:44:10;;;;;;;4.82;0.90;;;15.90;78.90;;;;;;5008382;28;20070;-74
2022/11/01 05:46:36;;;;;;;2.22;0.85;;;15.80;78.90;;;;;;5015988;28;20045;-74
2022/11/01 05:49:04;;;;;;;4.60;1.02;;;15.80;78.80;;;;;;5016314;28;20030;-74
2022/11/01 05:51:30;;;;;;;5.20;1.35;;;15.80;79.10;;;;;;5010718;28;20049;-73
2022/11/01 05:53:55;;;;;;;3.58;0.93;;;15.70;79.30;;;;;;5015460;28;20798;-74
2022/11/01 05:56:21;;;;;;;3.83;1.00;;;15.70;78.90;;;;;;5010802;28;20107;-74
2022/11/01 05:58:46;;;;;;;6.00;1.08;;;15.70;80.10;;;;;;5019687;28;20040;-74
2022/11/01 06:01:12;;;;;;;2.42;0.90;;;15.70;79.00;;;;;;5013922;28;20022;-75
2022/11/01 06:03:38;;;;;;;6.35;1.25;;;15.60;79.60;;;;;;5023839;28;20089;-74
2022/11/01 06:06:04;;;;;;;3.83;0.93;;;15.60;77.70;;;;;;5013743;28;20498;-73
2022/11/01 06:08:30;;;;;;;3.20;1.10;;;15.60;78.80;;;;;;5012850;28;20539;-74
2022/11/01 06:11:04;;;;;;;5.65;1.00;;;15.60;78.90;;;;;;5022301;28;20041;-74
2022/11/01 06:13:31;;;;;;;4.07;1.27;;;15.70;77.80;;;;;;5015999;28;20018;-74
2022/11/01 06:16:02;;;;;;;2.95;0.85;;;15.70;79.30;;;;;;5007860;28;20022;-74
2022/11/01 06:18:27;;;;;;;6.45;1.73;;;15.60;77.50;;;;;;5013494;28;20532;-74
2022/11/01 06:20:53;;;;;;;5.43;1.00;;;15.50;77.70;;;;;;5024564;28;20128;-74
2022/11/01 06:23:19;;;;;;;6.20;1.10;;;15.40;75.90;;;;;;5025740;28;20064;-74
2022/11/01 06:25:45;;;;;;;5.72;1.13;;;15.40;77.70;;;;;;5013127;28;20026;-74
2022/11/01 06:28:11;;;;;;;4.97;1.10;;;15.40;76.00;;;;;;5022159;28;20034;-74
2022/11/01 06:30:40;;;;;;;6.78;1.48;;;15.30;76.20;;;;;;5020378;28;20025;-73
2022/11/01 06:33:08;;;;;;;7.22;2.05;;;15.30;75.20;;;;;;5020178;28;20101;-74
2022/11/01 06:35:33;;;;;;;6.05;0.93;;;15.30;77.30;;;;;;5020678;28;20144;-73
2022/11/01 06:38:05;;;;;;;8.85;1.10;;;15.20;75.50;;;;;;5012492;28;20093;-72
2022/11/01 06:40:32;;;;;;;10.70;1.27;;;15.20;76.00;;;;;;5015617;28;20037;-74
2022/11/01 06:43:02;;;;;;;4.82;1.13;;;15.30;75.60;;;;;;5014238;28;20021;-74
2022/11/01 06:45:29;;;;;;;7.57;1.23;;;15.20;75.10;;;;;;5015389;28;20033;-74
2022/11/01 06:47:54;;;;;;;6.82;1.55;;;15.20;75.30;;;;;;5027211;28;20060;-74
2022/11/01 06:50:22;;;;;;;7.72;1.25;;;15.20;77.60;;;;;;5020540;28;20504;-73
2022/11/01 06:52:48;;;;;;;4.80;1.58;;;15.20;75.80;;;;;;5010365;28;20026;-73
2022/11/01 06:55:14;;;;;;;5.45;1.23;;;15.10;78.80;;;;;;5025270;28;20022;-73
2022/11/01 06:57:39;;;;;;;6.68;1.17;;;15.10;75.80;;;;;;5021553;28;20029;-73
2022/11/01 07:00:07;;;;;;;7.53;1.35;;;15.00;76.60;;;;;;5026014;28;20014;-73
2022/11/01 07:02:33;;;;;;;11.45;1.20;;;15.00;77.90;;;;;;5017172;28;20053;-73
2022/11/01 07:04:59;;;;;;;5.80;1.30;;;15.00;76.00;;;;;;5019587;28;20026;-74
2022/11/01 07:07:24;;;;;;;6.53;1.90;;;15.00;77.00;;;;;;5015649;28;20423;-73
2022/11/01 07:09:50;;;;;;;8.52;1.30;;;15.00;77.30;;;;;;5019229;28;20030;-73
2022/11/01 07:12:16;;;;;;;8.85;1.88;;;15.00;74.80;;;;;;5013044;28;20060;-74
2022/11/01 07:14:41;;;;;;;8.00;1.30;;;15.00;75.50;;;;;;5017482;28;20021;-74
2022/11/01 07:17:07;;;;;;;7.82;1.45;;;15.10;74.60;;;;;;5016603;28;20149;-73
2022/11/01 07:19:32;;;;;;;6.82;1.48;;;15.30;75.40;;;;;;5015766;28;20064;-73
2022/11/01 07:21:58;;;;;;;11.10;2.10;;;15.50;73.20;;;;;;5025746;28;20054;-73
2022/11/01 07:24:24;;;;;;;10.10;1.60;;;15.70;70.80;;;;;;5013165;28;20041;-73
2022/11/01 07:26:49;;;;;;;7.25;1.75;;;15.80;71.80;;;;;;5023394;28;20104;-74
2022/11/01 07:29:15;;;;;;;9.13;2.33;;;16.00;71.30;;;;;;5011009;28;20018;-73
2022/11/01 07:31:41;;;;;;;10.88;2.47;;;16.10;69.80;;;;;;5022897;28;20034;-74
2022/11/01 07:34:06;;;;;;;8.43;2.03;;;16.20;70.00;;;;;;5010687;28;20029;-73
2022/11/01 07:36:32;;;;;;;7.93;1.70;;;16.40;69.90;;;;;;5022411;28;20025;-72
2022/11/01 07:38:58;;;;;;;10.27;2.33;;;16.50;71.50;;;;;;5013798;28;20030;-74
2022/11/01 07:41:24;;;;;;;7.35;1.58;;;16.60;68.60;;;;;;5017538;28;20380;-74
2022/11/01 07:43:49;;;;;;;6.15;1.45;;;16.70;69.20;;;;;;5028096;28;20037;-73
2022/11/01 07:46:15;;;;;;;6.60;1.65;;;16.80;70.40;;;;;;5015787;28;20567;-72
2022/11/01 07:48:41;;;;;;;11.80;2.67;;;16.90;71.10;;;;;;5011408;28;20038;-73
2022/11/01 07:51:08;;;;;;;10.07;2.13;;;16.90;69.60;;;;;;5027240;28;20057;-72
2022/11/01 07:53:34;;;;;;;9.77;1.95;;;17.00;66.60;;;;;;5020281;28;20030;-73
2022/11/01 07:56:00;;;;;;;10.27;1.80;;;17.00;69.30;;;;;;5017075;28;20079;-72
2022/11/01 07:58:27;;;;;;;6.63;1.35;;;17.10;68.80;;;;;;5024551;28;20037;-73
2022/11/01 08:00:52;;;;;;;6.25;1.63;;;17.10;70.40;;;;;;5023280;28;20021;-73
2022/11/01 08:03:19;;;;;;;6.05;1.50;;;17.10;67.60;;;;;;5023428;28;20052;-73
2022/11/01 08:05:46;;;;;;;7.40;2.22;;;17.10;67.70;;;;;;5021789;28;20020;-73
2022/11/01 08:08:13;;;;;;;12.45;2.30;;;17.10;67.20;;;;;;5015653;28;20522;-71
2022/11/01 08:10:39;;;;;;;11.13;2.20;;;17.20;69.50;;;;;;5022237;28;20053;-73
2022/11/01 08:13:12;;;;;;;7.72;1.67;;;17.20;68.30;;;;;;5024238;28;20018;-73
2022/11/01 08:15:38;;;;;;;11.90;2.60;;;17.20;66.90;;;;;;5008905;28;20329;-72
2022/11/01 08:18:04;;;;;;;10.40;2.20;;;17.20;65.80;;;;;;5013759;28;20514;-72
2022/11/01 08:20:29;;;;;;;10.63;1.90;;;17.20;65.70;;;;;;5018900;28;20092;-73
2022/11/01 08:22:55;;;;;;;9.70;2.00;;;17.30;70.10;;;;;;5021281;28;20049;-73
2022/11/01 08:25:21;;;;;;;11.77;2.08;;;17.40;69.40;;;;;;5018245;28;20496;-74
2022/11/01 08:27:47;;;;;;;18.58;2.80;;;17.50;67.10;;;;;;5019328;28;20051;-74
2022/11/01 08:30:14;;;;;;;7.88;2.40;;;17.50;66.10;;;;;;5015044;28;20476;-73
2022/11/01 08:32:40;;;;;;;10.70;2.15;;;17.50;67.90;;;;;;5019805;28;20524;-73
2022/11/01 08:35:06;;;;;;;9.88;1.77;;;17.60;64.90;;;;;;5017741;28;20029;-73
2022/11/01 08:37:32;;;;;;;10.80;2.08;;;17.60;68.30;;;;;;5016466;28;20063;-73
2022/11/01 08:40:00;;;;;;;10.80;1.98;;;17.60;67.40;;;;;;5015184;28;20029;-73
2022/11/01 08:42:26;;;;;;;9.77;1.88;;;17.60;66.70;;;;;;5017208;28;20167;-74
2022/11/01 08:44:52;;;;;;;13.98;2.45;;;17.70;65.50;;;;;;5030153;28;20026;-73
2022/11/01 08:47:17;;;;;;;10.05;1.75;;;17.70;67.20;;;;;;5024507;28;20025;-74
2022/11/01 08:49:43;;;;;;;6.90;1.55;;;17.80;68.10;;;;;;5019963;28;20132;-73
2022/11/01 08:52:08;;;;;;;6.85;1.80;;;17.90;66.80;;;;;;5023981;28;20025;-74
2022/11/01 08:54:34;;;;;;;10.48;2.15;;;17.80;66.50;;;;;;5028209;28;20026;-74
2022/11/01 08:57:01;;;;;;;12.02;2.50;;;17.90;68.50;;;;;;5018562;28;21765;-73
2022/11/01 08:59:27;;;;;;;10.20;2.40;;;18.00;65.40;;;;;;5028223;28;20018;-72
2022/11/01 09:01:53;;;;;;;9.88;2.05;;;18.10;68.50;;;;;;5035840;28;20368;-73
2022/11/01 09:04:19;;;;;;;10.20;2.45;;;18.20;65.80;;;;;;5021971;28;20030;-73
2022/11/01 09:06:44;;;;;;;12.02;2.22;;;18.40;65.50;;;;;;5027868;28;20026;-72
2022/11/01 09:09:10;;;;;;;14.68;2.40;;;18.30;66.80;;;;;;5025321;28;20492;-73
2022/11/01 09:11:36;;;;;;;7.53;2.20;;;18.30;67.50;;;;;;5016873;28;20137;-72
2022/11/01 09:14:02;;;;;;;15.00;2.50;;;18.40;63.50;;;;;;5018407;28;20033;-73
2022/11/01 09:16:28;;;;;;;12.77;1.70;;;18.40;64.30;;;;;;5010808;28;20185;-73
2022/11/01 09:18:54;;;;;;;13.23;2.40;;;18.50;64.50;;;;;;5020712;28;20167;-72
2022/11/01 09:21:19;;;;;;;11.18;2.30;;;18.50;66.50;;;;;;5011915;28;20500;-73
2022/11/01 09:23:45;;;;;;;12.43;2.33;;;18.40;68.00;;;;;;5018021;28;20096;-73
2022/11/01 09:26:12;;;;;;;10.07;2.60;;;18.40;64.60;;;;;;5026315;28;20537;-74
2022/11/01 09:28:38;;;;;;;13.07;2.45;;;18.40;64.60;;;;;;5017559;28;20113;-73
2022/11/01 09:31:06;;;;;;;15.98;3.15;;;18.40;66.00;;;;;;5018675;28;20018;-73
2022/11/01 09:33:32;;;;;;;13.80;2.65;;;18.50;64.30;;;;;;5017057;28;20025;-74
2022/11/01 09:35:59;;;;;;;14.25;2.58;;;18.50;68.80;;;;;;5021829;28;20038;-74
2022/11/01 09:38:25;;;;;;;9.65;2.28;;;18.50;64.40;;;;;;5013192;28;20112;-73
2022/11/01 09:41:13;;;;;;;10.27;2.53;;;18.70;63.80;;;;;;5026422;28;20690;-73
2022/11/01 09:43:42;;;;;;;15.65;2.63;;;18.90;63.90;;;;;;5019202;28;20047;-74
2022/11/01 09:46:13;;;;;;;13.82;2.63;;;18.90;63.40;;;;;;5019787;28;20697;-74
2022/11/01 09:48:40;;;;;;;9.75;2.10;;;18.80;63.40;;;;;;5016179;28;20028;-74
2022/11/01 09:51:20;;;;;;;11.05;2.88;;;18.80;66.60;;;;;;5024117;28;20021;-74
2022/11/01 09:53:48;;;;;;;7.30;1.52;;;18.90;65.80;;;;;;5017302;28;20018;-73
2022/11/01 09:56:21;;;;;;;12.15;2.70;;;19.10;72.40;;;;;;5024212;28;20578;-74
2022/11/01 09:59:30;;;;;;;13.52;2.90;;;19.20;64.10;;;;;;5023908;28;20041;-74
2022/11/01 10:02:29;;;;;;;12.43;2.35;;;19.30;60.70;;;;;;5013555;28;20448;-73
2022/11/01 10:05:13;;;;;;;10.63;1.90;;;19.50;59.50;;;;;;5019572;28;20034;-74
2022/11/01 10:08:09;;;;;;;14.32;3.05;;;19.50;63.00;;;;;;5019323;28;20476;-73
2022/11/01 10:11:00;;;;;;;13.93;3.15;;;19.60;63.80;;;;;;5019400;28;20543;-73
2022/11/01 10:13:34;;;;;;;18.35;2.85;;;19.50;59.40;;;;;;5027352;28;20044;-73
2022/11/01 10:16:29;;;;;;;8.43;2.00;;;19.60;61.30;;;;;;5017409;28;20068;-72
2022/11/01 10:19:16;;;;;;;14.70;2.72;;;19.70;62.10;;;;;;5027571;28;20036;-73
2022/11/01 10:21:49;;;;;;;15.05;3.10;;;19.80;58.90;;;;;;5030391;28;20056;-73
2022/11/01 10:24:44;;;;;;;10.20;2.63;;;19.70;64.70;;;;;;5023664;28;20656;-74
2022/11/01 10:27:28;;;;;;;14.80;2.95;;;19.70;60.90;;;;;;5018193;28;20512;-73
2022/11/01 10:30:06;;;;;;;12.32;2.80;;;19.60;62.30;;;;;;5019052;28;20033;-73
2022/11/01 10:32:38;;;;;;;9.63;2.47;;;19.60;63.50;;;;;;5014349;28;20030;-74
2022/11/01 10:35:22;;;;;;;16.48;2.65;;;19.50;62.90;;;;;;5008933;28;20030;-75
2022/11/01 10:38:03;;;;;;;13.70;2.67;;;19.50;63.50;;;;;;5022556;28;20040;-73
2022/11/01 10:40:36;;;;;;;10.93;2.13;;;19.30;66.70;;;;;;5011898;28;20061;-76
2022/11/01 10:43:13;;;;;;;10.75;1.98;;;19.40;64.10;;;;;;5018382;28;20523;-76
2022/11/01 10:45:41;;;;;;;15.73;3.22;;;19.50;70.30;;;;;;5016165;28;20026;-75
2022/11/01 10:48:15;;;;;;;11.63;2.88;;;19.50;64.10;;;;;;5023948;28;20033;-75
2022/11/01 10:50:42;;;;;;;10.15;2.45;;;19.50;63.70;;;;;;5027850;28;20604;-75
2022/11/01 10:53:11;;;;;;;12.63;2.70;;;19.50;61.20;;;;;;5029048;28;20026;-75
2022/11/01 10:55:44;;;;;;;13.13;2.80;;;19.60;60.80;;;;;;5024265;28;20415;-78
2022/11/01 10:58:30;;;;;;;9.60;1.98;;;19.80;61.20;;;;;;5028487;28;20488;-77
2022/11/01 11:00:56;;;;;;;13.20;2.65;;;20.00;64.60;;;;;;5010892;28;20109;-76
2022/11/01 11:03:24;;;;;;;12.50;2.58;;;20.10;61.20;;;;;;5018802;28;20112;-77
2022/11/01 11:05:53;;;;;;;10.50;2.53;;;20.30;60.30;;;;;;5016535;28;20034;-77
2022/11/01 11:08:24;;;;;;;14.85;2.50;;;20.10;57.70;;;;;;5029342;28;20061;-76
2022/11/01 11:10:49;;;;;;;11.98;1.83;;;20.10;59.40;;;;;;5018979;28;20344;-74
2022/11/01 11:13:20;;;;;;;11.52;2.15;;;20.00;58.60;;;;;;5018096;28;20541;-78
2022/11/01 11:15:55;;;;;;;17.40;2.58;;;20.10;60.40;;;;;;5023926;28;20021;-76
2022/11/01 11:18:29;;;;;;;10.13;2.20;;;20.00;60.30;;;;;;5020002;28;20033;-76
2022/11/01 11:21:16;;;;;;;8.00;2.25;;;20.10;63.40;;;;;;5016452;28;20045;-75
2022/11/01 11:23:45;;;;;;;11.98;1.95;;;20.10;63.10;;;;;;5026237;28;20058;-78
2022/11/01 11:26:17;;;;;;;9.80;1.92;;;20.10;61.60;;;;;;5029582;28;20024;-76
2022/11/01 11:28:52;;;;;;;8.07;1.92;;;20.10;61.20;;;;;;5021877;28;20381;-76
2022/11/01 11:31:27;;;;;;;12.77;2.88;;;20.40;62.30;;;;;;5028562;28;20056;-77
2022/11/01 11:33:56;;;;;;;10.20;1.60;;;20.60;63.10;;;;;;5025245;28;20025;-76
2022/11/01 11:36:37;;;;;;;13.73;3.47;;;20.60;64.40;;;;;;5024188;28;20037;-77
2022/11/01 11:39:02;;;;;;;12.25;2.38;;;20.70;61.80;;;;;;5026211;28;20025;-77
2022/11/01 11:41:35;;;;;;;10.43;2.15;;;20.50;63.80;;;;;;5024196;28;20125;-76
2022/11/01 11:44:01;;;;;;;12.43;2.20;;;20.50;59.80;;;;;;5020726;28;20103;-77
2022/11/01 11:46:28;;;;;;;10.07;2.42;;;20.60;63.10;;;;;;5018134;28;20121;-77
2022/11/01 11:49:03;;;;;;;8.52;2.17;;;20.50;64.10;;;;;;5016270;28;20034;-78
2022/11/01 11:51:33;;;;;;;11.30;2.28;;;20.60;64.90;;;;;;5019292;28;20507;-75
2022/11/01 11:54:11;;;;;;;13.02;2.90;;;20.60;61.00;;;;;;5018901;28;20040;-78
2022/11/01 11:56:38;;;;;;;9.05;2.00;;;20.60;68.10;;;;;;5020671;28;20053;-77
2022/11/01 11:59:24;;;;;;;10.18;2.05;;;20.60;66.70;;;;;;5021320;28;20056;-77
2022/11/01 12:01:56;;;;;;;9.73;2.42;;;20.60;65.40;;;;;;5023272;28;20045;-78
2022/11/01 12:04:22;;;;;;;7.45;2.22;;;20.90;66.20;;;;;;5018293;28;20120;-77
2022/11/01 12:06:48;;;;;;;11.48;2.88;;;21.00;61.30;;;;;;5027967;28;20049;-77
2022/11/01 12:09:34;;;;;;;8.57;2.20;;;21.10;60.50;;;;;;5014345;28;20034;-75
2022/11/01 12:12:33;;;;;;;7.93;2.28;;;21.10;62.70;;;;;;5021844;28;20545;-78
2022/11/01 12:15:02;;;;;;;11.93;2.00;;;21.10;59.00;;;;;;5018605;28;20551;-78
2022/11/01 12:17:43;;;;;;;12.73;2.40;;;21.10;57.80;;;;;;5023610;28;20422;-77
2022/11/01 12:20:23;;;;;;;15.48;3.00;;;21.10;58.00;;;;;;5027525;28;20017;-76
2022/11/01 12:23:17;;;;;;;8.00;2.03;;;21.20;62.50;;;;;;5026883;28;20049;-78
2022/11/01 12:25:45;;;;;;;12.38;2.95;;;21.20;59.70;;;;;;5024374;28;20026;-75
2022/11/01 12:28:36;;;;;;;13.75;2.33;;;21.40;57.90;;;;;;5015418;28;20099;-77
2022/11/01 12:31:13;;;;;;;11.52;2.03;;;21.40;56.20;;;;;;5028935;28;20024;-77
2022/11/01 12:33:45;;;;;;;13.82;2.55;;;21.30;57.30;;;;;;5025661;28;20030;-77
2022/11/01 12:36:12;;;;;;;9.23;2.22;;;21.30;56.90;;;;;;5029191;28;20083;-79
2022/11/01 12:38:49;;;;;;;11.57;2.22;;;21.20;58.30;;;;;;5022869;28;20022;-77
2022/11/01 12:41:43;;;;;;;7.55;1.88;;;21.20;62.10;;;;;;5023583;28;20033;-77
2022/11/01 12:44:19;;;;;;;12.02;2.08;;;21.30;68.20;;;;;;5006430;28;20061;-78
2022/11/01 12:46:49;;;;;;;10.02;2.33;;;21.50;62.20;;;;;;5024133;28;20052;-80
2022/11/01 12:49:15;;;;;;;9.60;2.17;;;21.50;60.60;;;;;;5029800;28;20057;-76
2022/11/01 12:51:52;;;;;;;12.35;1.80;;;21.40;56.10;;;;;;5019930;28;20488;-79
2022/11/01 12:54:39;;;;;;;8.02;1.48;;;21.40;59.20;;;;;;5008824;28;20506;-77
2022/11/01 12:57:13;;;;;;;7.80;1.90;;;21.30;57.30;;;;;;5026792;28;20067;-77
2022/11/01 12:59:39;;;;;;;8.48;1.70;;;21.10;60.10;;;;;;5015145;28;20088;-78
2022/11/01 13:02:10;;;;;;;10.57;1.77;;;21.00;58.10;;;;;;5027468;28;20029;-78
2022/11/01 13:04:44;;;;;;;10.82;1.85;;;21.00;60.20;;;;;;5013012;28;20602;-79